sensor_id;sensor_type;location;lat;lon;timestamp;pressure;altitude;pressure_sealevel;temperature;humidity
77770;BME280;66961;51.482;9.160;2023-07-28T00:01:07;98312.56;;;16.56;97.87
77770;BME280;66961;51.482;9.160;2023-07-28T00:03:33;98312.81;;;16.54;98.02
77770;BME280;66961;51.482;9.160;2023-07-28T00:05:58;98316.75;;;16.52;98.38
77770;BME280;66961;51.482;9.160;2023-07-28T00:08:23;98329.56;;;16.50;98.26
77770;BME280;66961;51.482;9.160;2023-07-28T00:10:48;98322.00;;;16.47;98.69
77770;BME280;66961;51.482;9.160;2023-07-28T00:13:13;98324.91;;;16.45;98.60
77770;BME280;66961;51.482;9.160;2023-07-28T00:15:39;98327.59;;;16.45;98.60
77770;BME280;66961;51.482;9.160;2023-07-28T00:18:04;98337.47;;;16.45;98.57
77770;BME280;66961;51.482;9.160;2023-07-28T00:20:29;98334.56;;;16.46;98.55
77770;BME280;66961;51.482;9.160;2023-07-28T00:22:54;98337.25;;;16.46;98.65
77770;BME280;66961;51.482;9.160;2023-07-28T00:25:20;98328.41;;;16.46;98.80
77770;BME280;66961;51.482;9.160;2023-07-28T00:27:45;98326.78;;;16.45;99.00
77770;BME280;66961;51.482;9.160;2023-07-28T00:30:11;98332.69;;;16.47;99.13
77770;BME280;66961;51.482;9.160;2023-07-28T00:32:36;98333.53;;;16.47;99.23
77770;BME280;66961;51.482;9.160;2023-07-28T00:35:02;98335.97;;;16.49;99.06
77770;BME280;66961;51.482;9.160;2023-07-28T00:37:28;98331.66;;;16.48;98.85
77770;BME280;66961;51.482;9.160;2023-07-28T00:39:53;98333.28;;;16.49;98.75
77770;BME280;66961;51.482;9.160;2023-07-28T00:42:18;98333.03;;;16.50;99.05
77770;BME280;66961;51.482;9.160;2023-07-28T00:44:43;98326.88;;;16.50;99.58
77770;BME280;66961;51.482;9.160;2023-07-28T00:47:09;98329.22;;;16.46;99.13
77770;BME280;66961;51.482;9.160;2023-07-28T00:49:34;98327.94;;;16.49;98.26
77770;BME280;66961;51.482;9.160;2023-07-28T00:51:59;98320.25;;;16.52;97.71
77770;BME280;66961;51.482;9.160;2023-07-28T00:54:25;98327.47;;;16.52;97.43
77770;BME280;66961;51.482;9.160;2023-07-28T00:56:51;98316.75;;;16.52;97.51
77770;BME280;66961;51.482;9.160;2023-07-28T00:59:16;98331.75;;;16.53;97.55
77770;BME280;66961;51.482;9.160;2023-07-28T01:01:42;98325.25;;;16.49;97.46
77770;BME280;66961;51.482;9.160;2023-07-28T01:04:07;98329.09;;;16.53;97.46
77770;BME280;66961;51.482;9.160;2023-07-28T01:07:04;98334.69;;;16.51;96.93
77770;BME280;66961;51.482;9.160;2023-07-28T01:09:40;98333.63;;;16.52;96.90
77770;BME280;66961;51.482;9.160;2023-07-28T01:12:08;98329.91;;;16.53;96.97
77770;BME280;66961;51.482;9.160;2023-07-28T01:14:33;98315.72;;;16.53;97.08
77770;BME280;66961;51.482;9.160;2023-07-28T01:16:59;98320.50;;;16.51;97.19
77770;BME280;66961;51.482;9.160;2023-07-28T01:19:24;98314.31;;;16.50;97.49
77770;BME280;66961;51.482;9.160;2023-07-28T01:22:16;98323.63;;;16.48;97.51
77770;BME280;66961;51.482;9.160;2023-07-28T01:25:05;98307.00;;;16.46;97.56
77770;BME280;66961;51.482;9.160;2023-07-28T01:27:31;98317.72;;;16.46;97.18
77770;BME280;66961;51.482;9.160;2023-07-28T01:29:57;98325.72;;;16.46;97.40
77770;BME280;66961;51.482;9.160;2023-07-28T01:32:22;98329.44;;;16.45;97.35
77770;BME280;66961;51.482;9.160;2023-07-28T01:34:47;98322.25;;;16.45;97.31
77770;BME280;66961;51.482;9.160;2023-07-28T01:37:13;98328.41;;;16.46;97.15
77770;BME280;66961;51.482;9.160;2023-07-28T01:39:38;98324.91;;;16.45;96.84
77770;BME280;66961;51.482;9.160;2023-07-28T01:42:03;98333.75;;;16.46;96.23
77770;BME280;66961;51.482;9.160;2023-07-28T01:44:28;98327.34;;;16.47;96.27
77770;BME280;66961;51.482;9.160;2023-07-28T01:46:54;98334.91;;;16.50;95.67
77770;BME280;66961;51.482;9.160;2023-07-28T01:49:19;98318.03;;;16.49;96.20
77770;BME280;66961;51.482;9.160;2023-07-28T01:51:44;98329.22;;;16.46;96.33
77770;BME280;66961;51.482;9.160;2023-07-28T01:54:09;98326.31;;;16.48;96.53
77770;BME280;66961;51.482;9.160;2023-07-28T01:56:36;98331.88;;;16.46;96.82
77770;BME280;66961;51.482;9.160;2023-07-28T01:59:01;98333.16;;;16.44;96.71
77770;BME280;66961;51.482;9.160;2023-07-28T02:01:26;98328.63;;;16.44;96.98
77770;BME280;66961;51.482;9.160;2023-07-28T02:03:52;98325.38;;;16.42;96.95
77770;BME280;66961;51.482;9.160;2023-07-28T02:06:17;98329.91;;;16.42;96.96
77770;BME280;66961;51.482;9.160;2023-07-28T02:08:42;98321.09;;;16.41;96.79
77770;BME280;66961;51.482;9.160;2023-07-28T02:11:07;98325.84;;;16.39;96.81
77770;BME280;66961;51.482;9.160;2023-07-28T02:13:33;98324.00;;;16.40;96.44
77770;BME280;66961;51.482;9.160;2023-07-28T02:15:58;98317.38;;;16.42;96.01
77770;BME280;66961;51.482;9.160;2023-07-28T02:18:23;98325.97;;;16.44;95.95
77770;BME280;66961;51.482;9.160;2023-07-28T02:20:48;98327.13;;;16.37;96.22
77770;BME280;66961;51.482;9.160;2023-07-28T02:23:14;98330.41;;;16.27;97.35
77770;BME280;66961;51.482;9.160;2023-07-28T02:25:39;98328.53;;;16.16;98.12
77770;BME280;66961;51.482;9.160;2023-07-28T02:28:04;98328.91;;;16.08;99.08
77770;BME280;66961;51.482;9.160;2023-07-28T02:30:29;98333.56;;;16.01;99.23
77770;BME280;66961;51.482;9.160;2023-07-28T02:32:55;98314.84;;;15.89;99.58
77770;BME280;66961;51.482;9.160;2023-07-28T02:35:20;98329.59;;;15.92;100.00
77770;BME280;66961;51.482;9.160;2023-07-28T02:37:45;98331.47;;;15.91;100.00
77770;BME280;66961;51.482;9.160;2023-07-28T02:40:11;98331.69;;;15.89;100.00
77770;BME280;66961;51.482;9.160;2023-07-28T02:42:36;98330.31;;;15.87;100.00
77770;BME280;66961;51.482;9.160;2023-07-28T02:45:02;98325.78;;;15.87;100.00
77770;BME280;66961;51.482;9.160;2023-07-28T02:47:27;98334.59;;;15.88;100.00
77770;BME280;66961;51.482;9.160;2023-07-28T02:49:53;98335.66;;;15.87;100.00
77770;BME280;66961;51.482;9.160;2023-07-28T02:52:18;98331.34;;;15.86;100.00
77770;BME280;66961;51.482;9.160;2023-07-28T02:54:43;98343.44;;;15.88;100.00
77770;BME280;66961;51.482;9.160;2023-07-28T02:57:08;98339.72;;;15.89;100.00
77770;BME280;66961;51.482;9.160;2023-07-28T02:59:34;98341.56;;;15.89;100.00
77770;BME280;66961;51.482;9.160;2023-07-28T03:01:59;98343.19;;;15.90;100.00
77770;BME280;66961;51.482;9.160;2023-07-28T03:04:24;98337.75;;;15.85;100.00
77770;BME280;66961;51.482;9.160;2023-07-28T03:06:50;98351.81;;;15.92;100.00
77770;BME280;66961;51.482;9.160;2023-07-28T03:09:15;98349.94;;;15.93;100.00
77770;BME280;66961;51.482;9.160;2023-07-28T03:11:44;98359.34;;;15.95;100.00
77770;BME280;66961;51.482;9.160;2023-07-28T03:14:10;98363.66;;;15.96;100.00
77770;BME280;66961;51.482;9.160;2023-07-28T03:16:35;98359.13;;;15.97;100.00
77770;BME280;66961;51.482;9.160;2023-07-28T03:19:01;98368.78;;;15.98;100.00
77770;BME280;66961;51.482;9.160;2023-07-28T03:21:29;98367.97;;;15.97;100.00
77770;BME280;66961;51.482;9.160;2023-07-28T03:23:55;98375.16;;;15.97;100.00
77770;BME280;66961;51.482;9.160;2023-07-28T03:26:20;98376.78;;;15.98;100.00
77770;BME280;66961;51.482;9.160;2023-07-28T03:28:45;98379.22;;;15.99;100.00
77770;BME280;66961;51.482;9.160;2023-07-28T03:31:11;98381.91;;;15.99;100.00
77770;BME280;66961;51.482;9.160;2023-07-28T03:33:36;98379.22;;;15.99;100.00
77770;BME280;66961;51.482;9.160;2023-07-28T03:36:02;98383.53;;;16.00;100.00
77770;BME280;66961;51.482;9.160;2023-07-28T03:38:27;98386.44;;;15.99;100.00
77770;BME280;66961;51.482;9.160;2023-07-28T03:40:53;98393.41;;;16.00;100.00
77770;BME280;66961;51.482;9.160;2023-07-28T03:43:18;98386.22;;;16.00;100.00
77770;BME280;66961;51.482;9.160;2023-07-28T03:45:43;98391.31;;;16.02;100.00
77770;BME280;66961;51.482;9.160;2023-07-28T03:48:09;98390.50;;;16.01;100.00
77770;BME280;66961;51.482;9.160;2023-07-28T03:50:34;98379.81;;;16.01;100.00
77770;BME280;66961;51.482;9.160;2023-07-28T03:52:59;98382.25;;;16.03;100.00
77770;BME280;66961;51.482;9.160;2023-07-28T03:55:24;98386.78;;;16.02;100.00
77770;BME280;66961;51.482;9.160;2023-07-28T03:57:50;98383.31;;;16.02;99.88
77770;BME280;66961;51.482;9.160;2023-07-28T04:00:15;98380.41;;;16.03;99.99
77770;BME280;66961;51.482;9.160;2023-07-28T04:02:40;98390.84;;;16.05;100.00
77770;BME280;66961;51.482;9.160;2023-07-28T04:05:06;98389.00;;;16.05;100.00
77770;BME280;66961;51.482;9.160;2023-07-28T04:07:31;98387.13;;;16.06;99.92
77770;BME280;66961;51.482;9.160;2023-07-28T04:09:57;98383.44;;;16.07;100.00
77770;BME280;66961;51.482;9.160;2023-07-28T04:12:22;98383.19;;;16.08;99.88
77770;BME280;66961;51.482;9.160;2023-07-28T04:14:47;98384.69;;;16.04;100.00
77770;BME280;66961;51.482;9.160;2023-07-28T04:17:12;98392.84;;;16.09;100.00
77770;BME280;66961;51.482;9.160;2023-07-28T04:19:38;98389.13;;;16.10;100.00
77770;BME280;66961;51.482;9.160;2023-07-28T04:22:03;98391.78;;;16.10;100.00
77770;BME280;66961;51.482;9.160;2023-07-28T04:24:28;98392.03;;;16.09;100.00
77770;BME280;66961;51.482;9.160;2023-07-28T04:26:54;98392.59;;;16.11;100.00
77770;BME280;66961;51.482;9.160;2023-07-28T04:29:19;98401.19;;;16.13;100.00
77770;BME280;66961;51.482;9.160;2023-07-28T04:31:44;98395.59;;;16.14;100.00
77770;BME280;66961;51.482;9.160;2023-07-28T04:34:10;98394.09;;;16.18;100.00
77770;BME280;66961;51.482;9.160;2023-07-28T04:36:35;98401.06;;;16.19;100.00
77770;BME280;66961;51.482;9.160;2023-07-28T04:39:00;98400.03;;;16.20;100.00
77770;BME280;66961;51.482;9.160;2023-07-28T04:41:26;98404.31;;;16.21;100.00
77770;BME280;66961;51.482;9.160;2023-07-28T04:43:51;98404.09;;;16.23;100.00
77770;BME280;66961;51.482;9.160;2023-07-28T04:46:16;98398.97;;;16.21;100.00
77770;BME280;66961;51.482;9.160;2023-07-28T04:48:41;98402.81;;;16.26;100.00
77770;BME280;66961;51.482;9.160;2023-07-28T04:51:07;98406.88;;;16.28;100.00
77770;BME280;66961;51.482;9.160;2023-07-28T04:53:32;98412.34;;;16.33;100.00
77770;BME280;66961;51.482;9.160;2023-07-28T04:55:57;98410.25;;;16.35;100.00
77770;BME280;66961;51.482;9.160;2023-07-28T04:58:23;98400.72;;;16.39;100.00
77770;BME280;66961;51.482;9.160;2023-07-28T05:00:48;98403.97;;;16.41;100.00
77770;BME280;66961;51.482;9.160;2023-07-28T05:03:13;98406.44;;;16.43;100.00
77770;BME280;66961;51.482;9.160;2023-07-28T05:05:38;98407.94;;;16.39;99.51
77770;BME280;66961;51.482;9.160;2023-07-28T05:08:04;98403.16;;;16.41;99.69
77770;BME280;66961;51.482;9.160;2023-07-28T05:10:29;98403.06;;;16.47;99.90
77770;BME280;66961;51.482;9.160;2023-07-28T05:12:54;98406.66;;;16.53;99.24
77770;BME280;66961;51.482;9.160;2023-07-28T05:15:20;98414.56;;;16.60;99.07
77770;BME280;66961;51.482;9.160;2023-07-28T05:17:45;98421.66;;;16.66;98.92
77770;BME280;66961;51.482;9.160;2023-07-28T05:20:10;98426.06;;;16.60;98.33
77770;BME280;66961;51.482;9.160;2023-07-28T05:22:36;98418.38;;;16.64;97.64
77770;BME280;66961;51.482;9.160;2023-07-28T05:25:01;98423.63;;;16.70;97.57
77770;BME280;66961;51.482;9.160;2023-07-28T05:27:27;98416.06;;;16.79;97.31
77770;BME280;66961;51.482;9.160;2023-07-28T05:29:52;98425.34;;;16.88;97.46
77770;BME280;66961;51.482;9.160;2023-07-28T05:32:17;98428.94;;;16.94;96.84
77770;BME280;66961;51.482;9.160;2023-07-28T05:34:43;98433.34;;;17.00;96.39
77770;BME280;66961;51.482;9.160;2023-07-28T05:37:08;98424.38;;;17.06;95.36
77770;BME280;66961;51.482;9.160;2023-07-28T05:39:33;98429.28;;;17.09;94.50
77770;BME280;66961;51.482;9.160;2023-07-28T05:41:59;98447.63;;;17.17;94.21
77770;BME280;66961;51.482;9.160;2023-07-28T05:44:24;98431.19;;;17.25;94.47
77770;BME280;66961;51.482;9.160;2023-07-28T05:46:49;98433.38;;;17.28;94.43
77770;BME280;66961;51.482;9.160;2023-07-28T05:49:14;98431.38;;;17.35;93.54
77770;BME280;66961;51.482;9.160;2023-07-28T05:51:40;98429.13;;;17.44;92.92
77770;BME280;66961;51.482;9.160;2023-07-28T05:54:05;98425.16;;;17.46;92.37
77770;BME280;66961;51.482;9.160;2023-07-28T05:56:30;98432.34;;;17.58;93.45
77770;BME280;66961;51.482;9.160;2023-07-28T05:58:56;98432.09;;;17.59;92.46
77770;BME280;66961;51.482;9.160;2023-07-28T06:01:21;98444.63;;;17.70;92.05
77770;BME280;66961;51.482;9.160;2023-07-28T06:03:46;98439.13;;;17.77;91.41
77770;BME280;66961;51.482;9.160;2023-07-28T06:06:12;98441.56;;;17.78;91.25
77770;BME280;66961;51.482;9.160;2023-07-28T06:08:37;98439.31;;;17.87;91.66
77770;BME280;66961;51.482;9.160;2023-07-28T06:11:04;98435.41;;;17.95;90.17
77770;BME280;66961;51.482;9.160;2023-07-28T06:13:30;98433.88;;;17.99;90.03
77770;BME280;66961;51.482;9.160;2023-07-28T06:15:55;98432.19;;;18.09;90.28
77770;BME280;66961;51.482;9.160;2023-07-28T06:18:21;98443.63;;;18.22;90.21
77770;BME280;66961;51.482;9.160;2023-07-28T06:20:46;98440.28;;;18.31;89.21
77770;BME280;66961;51.482;9.160;2023-07-28T06:23:11;98431.34;;;18.26;87.71
77770;BME280;66961;51.482;9.160;2023-07-28T06:25:36;98444.91;;;18.36;87.68
77770;BME280;66961;51.482;9.160;2023-07-28T06:28:02;98442.56;;;18.39;87.54
77770;BME280;66961;51.482;9.160;2023-07-28T06:30:27;98443.38;;;18.40;87.57
77770;BME280;66961;51.482;9.160;2023-07-28T06:32:52;98448.97;;;18.55;87.96
77770;BME280;66961;51.482;9.160;2023-07-28T06:35:17;98445.88;;;18.46;87.62
77770;BME280;66961;51.482;9.160;2023-07-28T06:37:43;98454.00;;;18.51;86.85
77770;BME280;66961;51.482;9.160;2023-07-28T06:40:08;98455.63;;;18.52;87.38
77770;BME280;66961;51.482;9.160;2023-07-28T06:42:34;98462.25;;;18.62;87.06
77770;BME280;66961;51.482;9.160;2023-07-28T06:45:00;98459.31;;;18.46;89.22
77770;BME280;66961;51.482;9.160;2023-07-28T06:47:25;98462.81;;;18.47;89.55
77770;BME280;66961;51.482;9.160;2023-07-28T06:49:50;98458.25;;;18.47;89.06
77770;BME280;66961;51.482;9.160;2023-07-28T06:52:16;98464.59;;;18.41;89.20
77770;BME280;66961;51.482;9.160;2023-07-28T06:54:41;98469.72;;;18.43;89.10
77770;BME280;66961;51.482;9.160;2023-07-28T06:57:06;98468.56;;;18.39;89.11
77770;BME280;66961;51.482;9.160;2023-07-28T06:59:32;98470.84;;;18.30;89.97
77770;BME280;66961;51.482;9.160;2023-07-28T07:01:57;98469.72;;;18.43;89.07
77770;BME280;66961;51.482;9.160;2023-07-28T07:04:22;98474.84;;;18.44;88.77
77770;BME280;66961;51.482;9.160;2023-07-28T07:06:48;98481.09;;;18.50;89.10
77770;BME280;66961;51.482;9.160;2023-07-28T07:09:13;98483.84;;;18.55;89.21
77770;BME280;66961;51.482;9.160;2023-07-28T07:11:38;98483.97;;;18.60;88.66
77770;BME280;66961;51.482;9.160;2023-07-28T07:14:03;98493.47;;;18.68;89.97
77770;BME280;66961;51.482;9.160;2023-07-28T07:16:29;98486.81;;;18.70;87.63
77770;BME280;66961;51.482;9.160;2023-07-28T07:18:54;98493.28;;;18.74;87.41
77770;BME280;66961;51.482;9.160;2023-07-28T07:21:19;98487.72;;;18.81;86.61
77770;BME280;66961;51.482;9.160;2023-07-28T07:23:44;98492.03;;;18.82;85.69
77770;BME280;66961;51.482;9.160;2023-07-28T07:26:10;98490.50;;;18.86;85.88
77770;BME280;66961;51.482;9.160;2023-07-28T07:28:35;98492.69;;;18.89;85.10
77770;BME280;66961;51.482;9.160;2023-07-28T07:31:00;98497.13;;;19.00;85.33
77770;BME280;66961;51.482;9.160;2023-07-28T07:33:26;98498.78;;;19.01;85.43
77770;BME280;66961;51.482;9.160;2023-07-28T07:35:51;98513.56;;;19.04;85.01
77770;BME280;66961;51.482;9.160;2023-07-28T07:38:16;98496.97;;;19.07;84.27
77770;BME280;66961;51.482;9.160;2023-07-28T07:40:42;98510.47;;;19.12;83.93
77770;BME280;66961;51.482;9.160;2023-07-28T07:43:07;98508.78;;;19.06;86.69
77770;BME280;66961;51.482;9.160;2023-07-28T07:45:32;98498.91;;;19.11;87.44
77770;BME280;66961;51.482;9.160;2023-07-28T07:48:01;98508.09;;;19.15;85.92
77770;BME280;66961;51.482;9.160;2023-07-28T07:50:26;98519.75;;;19.04;86.93
77770;BME280;66961;51.482;9.160;2023-07-28T07:52:51;98507.28;;;19.15;87.04
77770;BME280;66961;51.482;9.160;2023-07-28T07:55:17;98518.19;;;19.30;84.83
77770;BME280;66961;51.482;9.160;2023-07-28T07:57:42;98520.53;;;19.43;84.47
77770;BME280;66961;51.482;9.160;2023-07-28T08:00:08;98519.16;;;19.41;82.77
77770;BME280;66961;51.482;9.160;2023-07-28T08:02:34;98533.81;;;19.33;81.11
77770;BME280;66961;51.482;9.160;2023-07-28T08:04:59;98534.94;;;19.37;83.10
77770;BME280;66961;51.482;9.160;2023-07-28T08:07:26;98535.75;;;19.38;82.27
77770;BME280;66961;51.482;9.160;2023-07-28T08:09:51;98537.72;;;19.42;81.21
77770;BME280;66961;51.482;9.160;2023-07-28T08:12:16;98547.16;;;19.45;80.89
77770;BME280;66961;51.482;9.160;2023-07-28T08:14:42;98532.50;;;19.53;79.73
77770;BME280;66961;51.482;9.160;2023-07-28T08:17:08;98540.56;;;19.74;79.36
77770;BME280;66961;51.482;9.160;2023-07-28T08:19:33;98536.69;;;19.92;78.34
77770;BME280;66961;51.482;9.160;2023-07-28T08:21:59;98537.34;;;20.04;77.91
77770;BME280;66961;51.482;9.160;2023-07-28T08:24:24;98544.53;;;20.21;77.14
77770;BME280;66961;51.482;9.160;2023-07-28T08:26:49;98545.16;;;20.33;75.79
77770;BME280;66961;51.482;9.160;2023-07-28T08:29:15;98546.09;;;20.43;75.28
77770;BME280;66961;51.482;9.160;2023-07-28T08:31:40;98542.16;;;20.56;75.84
77770;BME280;66961;51.482;9.160;2023-07-28T08:34:05;98534.03;;;20.51;75.55
77770;BME280;66961;51.482;9.160;2023-07-28T08:36:31;98548.34;;;20.57;75.14
77770;BME280;66961;51.482;9.160;2023-07-28T08:38:56;98543.19;;;20.50;74.84
77770;BME280;66961;51.482;9.160;2023-07-28T08:41:21;98548.56;;;20.50;75.90
77770;BME280;66961;51.482;9.160;2023-07-28T08:43:47;98533.00;;;20.25;75.38
77770;BME280;66961;51.482;9.160;2023-07-28T08:46:12;98551.56;;;20.27;75.93
77770;BME280;66961;51.482;9.160;2023-07-28T08:48:37;98543.50;;;20.27;75.92
77770;BME280;66961;51.482;9.160;2023-07-28T08:51:03;98554.78;;;20.24;76.20
77770;BME280;66961;51.482;9.160;2023-07-28T08:53:28;98561.84;;;20.35;76.55
77770;BME280;66961;51.482;9.160;2023-07-28T08:55:53;98565.53;;;20.51;76.18
77770;BME280;66961;51.482;9.160;2023-07-28T08:58:20;98562.16;;;20.65;76.46
77770;BME280;66961;51.482;9.160;2023-07-28T09:00:49;98571.44;;;20.85;75.63
77770;BME280;66961;51.482;9.160;2023-07-28T09:03:16;98570.63;;;20.84;74.25
77770;BME280;66961;51.482;9.160;2023-07-28T09:05:42;98578.72;;;21.21;72.78
77770;BME280;66961;51.482;9.160;2023-07-28T09:08:07;98577.16;;;21.35;71.80
77770;BME280;66961;51.482;9.160;2023-07-28T09:13:13;98564.69;;;21.71;69.23
77770;BME280;66961;51.482;9.160;2023-07-28T09:15:39;98570.91;;;21.87;69.57
77770;BME280;66961;51.482;9.160;2023-07-28T09:18:08;98570.38;;;21.85;68.50
77770;BME280;66961;51.482;9.160;2023-07-28T09:20:35;98565.25;;;21.78;68.44
77770;BME280;66961;51.482;9.160;2023-07-28T09:23:01;98574.53;;;22.13;68.81
77770;BME280;66961;51.482;9.160;2023-07-28T09:25:28;98579.84;;;21.98;68.68
77770;BME280;66961;51.482;9.160;2023-07-28T09:27:53;98581.25;;;22.05;67.67
77770;BME280;66961;51.482;9.160;2023-07-28T09:30:19;98582.69;;;22.33;68.68
77770;BME280;66961;51.482;9.160;2023-07-28T09:32:54;98578.34;;;22.48;67.20
77770;BME280;66961;51.482;9.160;2023-07-28T09:35:20;98572.41;;;22.45;67.53
77770;BME280;66961;51.482;9.160;2023-07-28T09:37:47;98575.13;;;22.66;65.36
77770;BME280;66961;51.482;9.160;2023-07-28T09:40:17;98577.56;;;22.98;65.38
77770;BME280;66961;51.482;9.160;2023-07-28T09:42:45;98580.50;;;23.17;63.02
77770;BME280;66961;51.482;9.160;2023-07-28T09:45:11;98577.25;;;23.30;63.05
77770;BME280;66961;51.482;9.160;2023-07-28T09:47:37;98580.63;;;23.76;61.55
77770;BME280;66961;51.482;9.160;2023-07-28T09:50:08;98581.16;;;23.78;60.08
77770;BME280;66961;51.482;9.160;2023-07-28T09:52:38;98572.19;;;23.88;61.10
77770;BME280;66961;51.482;9.160;2023-07-28T09:55:07;98578.16;;;23.85;60.66
77770;BME280;66961;51.482;9.160;2023-07-28T09:57:36;98576.13;;;24.05;60.65
77770;BME280;66961;51.482;9.160;2023-07-28T10:00:04;98577.78;;;23.96;60.89
77770;BME280;66961;51.482;9.160;2023-07-28T10:02:29;98589.03;;;24.24;59.49
77770;BME280;66961;51.482;9.160;2023-07-28T10:04:55;98586.84;;;24.31;59.25
77770;BME280;66961;51.482;9.160;2023-07-28T10:07:21;98578.19;;;24.24;61.53
77770;BME280;66961;51.482;9.160;2023-07-28T10:09:47;98569.03;;;24.59;59.02
77770;BME280;66961;51.482;9.160;2023-07-28T10:12:23;98582.09;;;24.86;58.48
77770;BME280;66961;51.482;9.160;2023-07-28T10:15:00;98579.03;;;24.92;57.96
77770;BME280;66961;51.482;9.160;2023-07-28T10:17:33;98574.75;;;24.86;58.34
77770;BME280;66961;51.482;9.160;2023-07-28T10:19:59;98580.19;;;24.86;57.26
77770;BME280;66961;51.482;9.160;2023-07-28T10:22:26;98582.22;;;24.70;61.11
77770;BME280;66961;51.482;9.160;2023-07-28T10:24:56;98584.19;;;24.60;59.56
77770;BME280;66961;51.482;9.160;2023-07-28T10:27:45;98581.22;;;24.17;59.37
77770;BME280;66961;51.482;9.160;2023-07-28T10:30:11;98581.56;;;24.00;60.55
77770;BME280;66961;51.482;9.160;2023-07-28T10:32:38;98584.38;;;23.85;60.54
77770;BME280;66961;51.482;9.160;2023-07-28T10:35:09;98580.47;;;24.01;61.17
77770;BME280;66961;51.482;9.160;2023-07-28T10:37:36;98584.13;;;24.31;59.06
77770;BME280;66961;51.482;9.160;2023-07-28T10:42:51;98584.81;;;24.47;60.23
77770;BME280;66961;51.482;9.160;2023-07-28T10:45:17;98590.97;;;24.13;60.99
77770;BME280;66961;51.482;9.160;2023-07-28T10:47:42;98589.78;;;23.85;62.66
77770;BME280;66961;51.482;9.160;2023-07-28T10:50:11;98590.94;;;23.69;62.58
77770;BME280;66961;51.482;9.160;2023-07-28T10:52:46;98602.59;;;23.49;63.93
77770;BME280;66961;51.482;9.160;2023-07-28T10:55:20;98604.28;;;23.25;65.35
77770;BME280;66961;51.482;9.160;2023-07-28T10:57:47;98595.13;;;23.05;66.10
77770;BME280;66961;51.482;9.160;2023-07-28T11:00:14;98593.13;;;23.52;65.08
77770;BME280;66961;51.482;9.160;2023-07-28T11:03:07;98592.81;;;24.28;61.99
77770;BME280;66961;51.482;9.160;2023-07-28T11:05:33;98581.06;;;24.77;59.35
77770;BME280;66961;51.482;9.160;2023-07-28T11:08:02;98585.22;;;25.51;55.35
77770;BME280;66961;51.482;9.160;2023-07-28T11:10:31;98590.84;;;25.83;55.51
77770;BME280;66961;51.482;9.160;2023-07-28T11:13:00;98597.19;;;26.16;52.83
77770;BME280;66961;51.482;9.160;2023-07-28T11:15:26;98594.22;;;26.36;51.72
77770;BME280;66961;51.482;9.160;2023-07-28T11:17:52;98593.47;;;26.31;51.63
77770;BME280;66961;51.482;9.160;2023-07-28T11:20:22;98588.00;;;26.12;52.29
77770;BME280;66961;51.482;9.160;2023-07-28T11:23:06;98577.78;;;26.79;49.88
77770;BME280;66961;51.482;9.160;2023-07-28T11:25:33;98581.19;;;27.17;49.10
77770;BME280;66961;51.482;9.160;2023-07-28T11:28:03;98578.50;;;27.31;49.41
77770;BME280;66961;51.482;9.160;2023-07-28T11:30:28;98588.34;;;26.81;49.50
77770;BME280;66961;51.482;9.160;2023-07-28T11:32:54;98582.25;;;26.37;51.86
77770;BME280;66961;51.482;9.160;2023-07-28T11:35:21;98577.59;;;26.89;50.98
77770;BME280;66961;51.482;9.160;2023-07-28T11:37:48;98582.69;;;26.96;52.28
77770;BME280;66961;51.482;9.160;2023-07-28T11:40:16;98586.09;;;27.48;49.65
77770;BME280;66961;51.482;9.160;2023-07-28T11:42:47;98584.34;;;27.24;49.47
77770;BME280;66961;51.482;9.160;2023-07-28T11:45:13;98580.41;;;26.84;48.84
77770;BME280;66961;51.482;9.160;2023-07-28T11:47:39;98583.41;;;26.83;50.34
77770;BME280;66961;51.482;9.160;2023-07-28T11:50:05;98592.94;;;27.59;49.35
77770;BME280;66961;51.482;9.160;2023-07-28T11:52:31;98596.47;;;27.73;46.82
77770;BME280;66961;51.482;9.160;2023-07-28T11:54:58;98592.47;;;28.34;46.90
77770;BME280;66961;51.482;9.160;2023-07-28T11:57:25;98582.41;;;28.57;42.96
77770;BME280;66961;51.482;9.160;2023-07-28T11:59:50;98582.84;;;27.73;44.40
77770;BME280;66961;51.482;9.160;2023-07-28T12:02:25;98588.25;;;26.86;48.88
77770;BME280;66961;51.482;9.160;2023-07-28T12:04:50;98597.59;;;26.47;49.63
77770;BME280;66961;51.482;9.160;2023-07-28T12:07:16;98601.28;;;26.70;49.51
77770;BME280;66961;51.482;9.160;2023-07-28T12:12:13;98598.44;;;26.24;50.69
77770;BME280;66961;51.482;9.160;2023-07-28T12:14:38;98601.44;;;26.03;50.26
77770;BME280;66961;51.482;9.160;2023-07-28T12:17:12;98610.38;;;25.85;50.97
77770;BME280;66961;51.482;9.160;2023-07-28T12:22:21;98609.31;;;25.33;51.90
77770;BME280;66961;51.482;9.160;2023-07-28T12:24:46;98612.41;;;25.75;50.30
77770;BME280;66961;51.482;9.160;2023-07-28T12:27:12;98605.06;;;25.75;52.04
77770;BME280;66961;51.482;9.160;2023-07-28T12:29:37;98603.94;;;26.75;49.64
77770;BME280;66961;51.482;9.160;2023-07-28T12:32:02;98598.28;;;27.64;46.54
77770;BME280;66961;51.482;9.160;2023-07-28T12:34:28;98598.88;;;27.33;44.96
77770;BME280;66961;51.482;9.160;2023-07-28T12:36:53;98599.91;;;27.92;44.92
77770;BME280;66961;51.482;9.160;2023-07-28T12:39:18;98596.19;;;28.60;43.87
77770;BME280;66961;51.482;9.160;2023-07-28T12:41:44;98607.97;;;27.97;44.09
77770;BME280;66961;51.482;9.160;2023-07-28T12:44:09;98618.56;;;28.49;42.03
77770;BME280;66961;51.482;9.160;2023-07-28T12:46:34;98611.47;;;29.06;41.37
77770;BME280;66961;51.482;9.160;2023-07-28T12:49:00;98601.25;;;29.20;42.37
77770;BME280;66961;51.482;9.160;2023-07-28T12:51:25;98611.28;;;29.33;42.55
77770;BME280;66961;51.482;9.160;2023-07-28T12:53:50;98621.88;;;29.66;44.16
77770;BME280;66961;51.482;9.160;2023-07-28T12:56:15;98604.50;;;29.53;42.57
77770;BME280;66961;51.482;9.160;2023-07-28T12:58:41;98620.75;;;30.07;42.07
77770;BME280;66961;51.482;9.160;2023-07-28T13:01:06;98614.56;;;28.91;43.26
77770;BME280;66961;51.482;9.160;2023-07-28T13:03:31;98612.91;;;29.04;43.00